sensor_id;sensor_type;location;lat;lon;timestamp;pressure;altitude;pressure_sealevel;temperature;humidity
48888;BME280;42598;53.802;-1.632;2023-03-12T00:00:47;99380.45;;;0.24;100.00
48888;BME280;42598;53.802;-1.632;2023-03-12T00:03:14;99371.84;;;-0.17;100.00
48888;BME280;42598;53.802;-1.632;2023-03-12T00:05:43;99369.18;;;0.46;100.00
48888;BME280;42598;53.802;-1.632;2023-03-12T00:08:10;99362.60;;;-0.27;100.00
48888;BME280;42598;53.802;-1.632;2023-03-12T00:10:39;99356.08;;;-0.01;100.00
48888;BME280;42598;53.802;-1.632;2023-03-12T00:13:07;99354.80;;;-0.12;100.00
48888;BME280;42598;53.802;-1.632;2023-03-12T00:15:36;99349.75;;;1.09;100.00
48888;BME280;42598;53.802;-1.632;2023-03-12T00:18:03;99344.30;;;0.33;100.00
48888;BME280;42598;53.802;-1.632;2023-03-12T00:20:30;99342.52;;;0.95;100.00
48888;BME280;42598;53.802;-1.632;2023-03-12T00:22:58;99342.67;;;0.61;100.00
48888;BME280;42598;53.802;-1.632;2023-03-12T00:25:25;99342.02;;;0.24;100.00
48888;BME280;42598;53.802;-1.632;2023-03-12T00:27:52;99338.20;;;0.95;100.00
48888;BME280;42598;53.802;-1.632;2023-03-12T00:30:20;99338.10;;;0.32;100.00
48888;BME280;42598;53.802;-1.632;2023-03-12T00:32:47;99333.05;;;0.65;100.00
48888;BME280;42598;53.802;-1.632;2023-03-12T00:35:14;99330.55;;;0.81;100.00
48888;BME280;42598;53.802;-1.632;2023-03-12T00:37:41;99328.25;;;1.00;100.00
48888;BME280;42598;53.802;-1.632;2023-03-12T00:40:10;99324.55;;;0.98;100.00
48888;BME280;42598;53.802;-1.632;2023-03-12T00:42:37;99329.45;;;1.60;100.00
48888;BME280;42598;53.802;-1.632;2023-03-12T00:45:06;99332.05;;;1.58;100.00
48888;BME280;42598;53.802;-1.632;2023-03-12T00:47:33;99329.45;;;1.92;100.00
48888;BME280;42598;53.802;-1.632;2023-03-12T00:50:01;99324.24;;;2.99;100.00
48888;BME280;42598;53.802;-1.632;2023-03-12T00:52:28;99318.66;;;3.19;100.00
48888;BME280;42598;53.802;-1.632;2023-03-12T00:54:55;99318.16;;;2.33;100.00
48888;BME280;42598;53.802;-1.632;2023-03-12T00:57:22;99319.26;;;3.68;100.00
48888;BME280;42598;53.802;-1.632;2023-03-12T00:59:49;99315.85;;;2.65;100.00
48888;BME280;42598;53.802;-1.632;2023-03-12T01:02:16;99314.56;;;2.18;100.00
48888;BME280;42598;53.802;-1.632;2023-03-12T01:04:43;99309.04;;;2.83;100.00
48888;BME280;42598;53.802;-1.632;2023-03-12T01:07:10;99303.91;;;2.04;100.00
48888;BME280;42598;53.802;-1.632;2023-03-12T01:09:38;99297.22;;;2.92;100.00
48888;BME280;42598;53.802;-1.632;2023-03-12T01:12:05;99287.43;;;3.42;100.00
48888;BME280;42598;53.802;-1.632;2023-03-12T01:14:33;99278.35;;;2.85;100.00
48888;BME280;42598;53.802;-1.632;2023-03-12T01:17:00;99273.95;;;3.85;99.89
48888;BME280;42598;53.802;-1.632;2023-03-12T01:19:28;99264.72;;;2.56;100.00
48888;BME280;42598;53.802;-1.632;2023-03-12T01:21:55;99271.65;;;2.28;100.00
48888;BME280;42598;53.802;-1.632;2023-03-12T01:24:22;99261.84;;;2.82;100.00
48888;BME280;42598;53.802;-1.632;2023-03-12T01:26:49;99267.28;;;3.33;100.00
48888;BME280;42598;53.802;-1.632;2023-03-12T01:29:17;99260.94;;;3.16;100.00
48888;BME280;42598;53.802;-1.632;2023-03-12T01:31:43;99257.60;;;2.93;100.00
48888;BME280;42598;53.802;-1.632;2023-03-12T01:34:11;99257.06;;;3.14;100.00
48888;BME280;42598;53.802;-1.632;2023-03-12T01:36:39;99255.43;;;3.09;100.00
48888;BME280;42598;53.802;-1.632;2023-03-12T01:39:07;99249.95;;;3.41;100.00
48888;BME280;42598;53.802;-1.632;2023-03-12T01:41:33;99251.76;;;2.98;100.00
48888;BME280;42598;53.802;-1.632;2023-03-12T01:44:02;99251.09;;;2.91;100.00
48888;BME280;42598;53.802;-1.632;2023-03-12T01:46:32;99247.11;;;2.19;100.00
48888;BME280;42598;53.802;-1.632;2023-03-12T01:49:03;99245.65;;;2.92;100.00
48888;BME280;42598;53.802;-1.632;2023-03-12T01:51:35;99242.43;;;2.92;100.00
48888;BME280;42598;53.802;-1.632;2023-03-12T01:54:08;99244.95;;;2.59;100.00
48888;BME280;42598;53.802;-1.632;2023-03-12T01:56:37;99246.34;;;3.40;100.00
48888;BME280;42598;53.802;-1.632;2023-03-12T01:59:08;99238.79;;;2.33;100.00
48888;BME280;42598;53.802;-1.632;2023-03-12T02:01:36;99235.70;;;3.95;100.00
48888;BME280;42598;53.802;-1.632;2023-03-12T02:04:05;99234.14;;;3.28;100.00
48888;BME280;42598;53.802;-1.632;2023-03-12T02:06:37;99226.80;;;4.01;100.00
48888;BME280;42598;53.802;-1.632;2023-03-12T02:09:07;99223.40;;;4.09;99.16
48888;BME280;42598;53.802;-1.632;2023-03-12T02:11:34;99223.29;;;3.53;100.00
48888;BME280;42598;53.802;-1.632;2023-03-12T02:14:01;99223.29;;;3.71;100.00
48888;BME280;42598;53.802;-1.632;2023-03-12T02:16:29;99223.35;;;2.87;100.00
48888;BME280;42598;53.802;-1.632;2023-03-12T02:18:59;99222.24;;;3.77;100.00
48888;BME280;42598;53.802;-1.632;2023-03-12T02:21:29;99227.91;;;4.09;97.46
48888;BME280;42598;53.802;-1.632;2023-03-12T02:24:02;99218.48;;;3.15;99.82
48888;BME280;42598;53.802;-1.632;2023-03-12T02:26:29;99219.55;;;2.29;100.00
48888;BME280;42598;53.802;-1.632;2023-03-12T02:28:59;99223.40;;;3.99;98.51
48888;BME280;42598;53.802;-1.632;2023-03-12T02:31:30;99212.96;;;4.08;100.00
48888;BME280;42598;53.802;-1.632;2023-03-12T02:33:58;99207.85;;;4.08;97.71
48888;BME280;42598;53.802;-1.632;2023-03-12T02:36:26;99204.29;;;3.83;97.63
48888;BME280;42598;53.802;-1.632;2023-03-12T02:38:55;99197.61;;;3.43;99.11
48888;BME280;42598;53.802;-1.632;2023-03-12T02:41:25;99189.78;;;4.20;99.52
48888;BME280;42598;53.802;-1.632;2023-03-12T02:43:58;99191.17;;;3.81;98.02
48888;BME280;42598;53.802;-1.632;2023-03-12T02:46:27;99197.05;;;3.68;100.00
48888;BME280;42598;53.802;-1.632;2023-03-12T02:48:56;99201.89;;;4.59;97.08
48888;BME280;42598;53.802;-1.632;2023-03-12T02:51:24;99195.48;;;3.45;100.00
48888;BME280;42598;53.802;-1.632;2023-03-12T02:53:51;99188.30;;;3.98;97.78
48888;BME280;42598;53.802;-1.632;2023-03-12T02:56:18;99179.83;;;4.23;98.02
48888;BME280;42598;53.802;-1.632;2023-03-12T02:58:45;99180.60;;;4.53;97.69
48888;BME280;42598;53.802;-1.632;2023-03-12T03:01:12;99180.97;;;5.00;96.73
48888;BME280;42598;53.802;-1.632;2023-03-12T03:03:39;99186.70;;;5.12;94.39
48888;BME280;42598;53.802;-1.632;2023-03-12T03:06:06;99190.59;;;5.19;91.68
48888;BME280;42598;53.802;-1.632;2023-03-12T03:08:33;99186.51;;;4.65;95.12
48888;BME280;42598;53.802;-1.632;2023-03-12T03:11:01;99188.39;;;4.87;95.65
48888;BME280;42598;53.802;-1.632;2023-03-12T03:13:28;99196.03;;;4.13;96.81
48888;BME280;42598;53.802;-1.632;2023-03-12T03:15:55;99192.50;;;3.22;98.04
48888;BME280;42598;53.802;-1.632;2023-03-12T03:18:22;99192.20;;;5.19;94.41
48888;BME280;42598;53.802;-1.632;2023-03-12T03:20:54;99189.32;;;4.37;95.38
48888;BME280;42598;53.802;-1.632;2023-03-12T03:23:22;99194.14;;;4.38;97.44
48888;BME280;42598;53.802;-1.632;2023-03-12T03:25:49;99202.38;;;4.34;97.70
48888;BME280;42598;53.802;-1.632;2023-03-12T03:28:16;99196.47;;;5.65;93.39
48888;BME280;42598;53.802;-1.632;2023-03-12T03:30:44;99197.60;;;5.14;94.47
48888;BME280;42598;53.802;-1.632;2023-03-12T03:33:11;99190.91;;;5.37;93.69
48888;BME280;42598;53.802;-1.632;2023-03-12T03:35:39;99200.93;;;5.63;92.68
48888;BME280;42598;53.802;-1.632;2023-03-12T03:38:06;99201.93;;;5.82;91.03
48888;BME280;42598;53.802;-1.632;2023-03-12T03:40:33;99208.12;;;5.27;92.31
48888;BME280;42598;53.802;-1.632;2023-03-12T03:43:00;99204.51;;;5.68;91.58
48888;BME280;42598;53.802;-1.632;2023-03-12T03:45:27;99206.31;;;5.26;91.61
48888;BME280;42598;53.802;-1.632;2023-03-12T03:47:54;99203.60;;;6.87;88.80
48888;BME280;42598;53.802;-1.632;2023-03-12T03:50:21;99200.92;;;7.05;87.67
48888;BME280;42598;53.802;-1.632;2023-03-12T03:52:48;99206.65;;;6.34;88.65
48888;BME280;42598;53.802;-1.632;2023-03-12T03:55:15;99213.01;;;5.72;91.83
48888;BME280;42598;53.802;-1.632;2023-03-12T03:57:42;99211.71;;;5.84;92.54
48888;BME280;42598;53.802;-1.632;2023-03-12T04:00:11;99211.09;;;5.04;93.65
48888;BME280;42598;53.802;-1.632;2023-03-12T04:02:39;99207.22;;;6.09;91.01
48888;BME280;42598;53.802;-1.632;2023-03-12T04:05:08;99213.95;;;6.35;91.79
48888;BME280;42598;53.802;-1.632;2023-03-12T04:07:35;99218.17;;;5.50;92.60
48888;BME280;42598;53.802;-1.632;2023-03-12T04:10:03;99219.96;;;6.39;89.69
48888;BME280;42598;53.802;-1.632;2023-03-12T04:12:31;99229.13;;;5.96;91.95
48888;BME280;42598;53.802;-1.632;2023-03-12T04:14:58;99227.26;;;6.09;90.41
48888;BME280;42598;53.802;-1.632;2023-03-12T04:17:25;99229.31;;;6.73;90.23
48888;BME280;42598;53.802;-1.632;2023-03-12T04:19:52;99235.49;;;5.94;93.16
48888;BME280;42598;53.802;-1.632;2023-03-12T04:22:19;99234.47;;;4.81;100.00
48888;BME280;42598;53.802;-1.632;2023-03-12T04:24:46;99228.81;;;4.61;100.00
48888;BME280;42598;53.802;-1.632;2023-03-12T04:27:13;99220.55;;;5.11;100.00
48888;BME280;42598;53.802;-1.632;2023-03-12T04:29:41;99222.20;;;4.39;100.00
48888;BME280;42598;53.802;-1.632;2023-03-12T04:32:07;99220.85;;;4.15;100.00
48888;BME280;42598;53.802;-1.632;2023-03-12T04:34:35;99215.56;;;4.49;100.00
48888;BME280;42598;53.802;-1.632;2023-03-12T04:37:02;99215.16;;;4.19;100.00
48888;BME280;42598;53.802;-1.632;2023-03-12T04:39:28;99209.84;;;4.65;100.00
48888;BME280;42598;53.802;-1.632;2023-03-12T04:41:55;99210.96;;;4.54;100.00
48888;BME280;42598;53.802;-1.632;2023-03-12T04:44:22;99204.16;;;4.60;100.00
48888;BME280;42598;53.802;-1.632;2023-03-12T04:46:49;99201.52;;;4.87;100.00
48888;BME280;42598;53.802;-1.632;2023-03-12T04:49:17;99203.14;;;4.41;100.00
48888;BME280;42598;53.802;-1.632;2023-03-12T04:51:43;99200.69;;;5.27;100.00
48888;BME280;42598;53.802;-1.632;2023-03-12T04:54:10;99195.98;;;4.40;100.00
48888;BME280;42598;53.802;-1.632;2023-03-12T04:56:37;99198.77;;;4.65;100.00
48888;BME280;42598;53.802;-1.632;2023-03-12T04:59:04;99196.79;;;4.66;100.00
48888;BME280;42598;53.802;-1.632;2023-03-12T05:01:32;99200.88;;;4.42;100.00
48888;BME280;42598;53.802;-1.632;2023-03-12T05:04:00;99205.30;;;4.44;100.00
48888;BME280;42598;53.802;-1.632;2023-03-12T05:06:28;99205.64;;;4.51;100.00
48888;BME280;42598;53.802;-1.632;2023-03-12T05:08:55;99201.95;;;3.99;100.00
48888;BME280;42598;53.802;-1.632;2023-03-12T05:11:22;99210.56;;;4.90;100.00
48888;BME280;42598;53.802;-1.632;2023-03-12T05:13:49;99216.02;;;4.87;100.00
48888;BME280;42598;53.802;-1.632;2023-03-12T05:16:17;99211.03;;;4.55;100.00
48888;BME280;42598;53.802;-1.632;2023-03-12T05:18:44;99212.45;;;4.40;100.00
48888;BME280;42598;53.802;-1.632;2023-03-12T05:21:14;99217.34;;;4.74;100.00
48888;BME280;42598;53.802;-1.632;2023-03-12T05:23:42;99215.40;;;4.85;100.00
48888;BME280;42598;53.802;-1.632;2023-03-12T05:26:35;99220.04;;;6.18;100.00
48888;BME280;42598;53.802;-1.632;2023-03-12T05:29:08;99230.96;;;5.50;100.00
48888;BME280;42598;53.802;-1.632;2023-03-12T05:31:35;99223.81;;;4.72;100.00
48888;BME280;42598;53.802;-1.632;2023-03-12T05:34:03;99220.03;;;4.85;100.00
48888;BME280;42598;53.802;-1.632;2023-03-12T05:36:30;99221.54;;;5.11;100.00
48888;BME280;42598;53.802;-1.632;2023-03-12T05:38:58;99220.17;;;5.10;100.00
48888;BME280;42598;53.802;-1.632;2023-03-12T05:41:27;99221.76;;;5.00;100.00
48888;BME280;42598;53.802;-1.632;2023-03-12T05:43:56;99234.32;;;4.59;100.00
48888;BME280;42598;53.802;-1.632;2023-03-12T05:46:25;99230.06;;;4.54;100.00
48888;BME280;42598;53.802;-1.632;2023-03-12T05:48:52;99227.32;;;4.29;100.00
48888;BME280;42598;53.802;-1.632;2023-03-12T05:51:20;99230.08;;;4.90;100.00
48888;BME280;42598;53.802;-1.632;2023-03-12T05:53:47;99225.47;;;4.98;100.00
48888;BME280;42598;53.802;-1.632;2023-03-12T05:56:16;99228.53;;;4.89;100.00
48888;BME280;42598;53.802;-1.632;2023-03-12T05:58:44;99239.62;;;5.03;100.00
48888;BME280;42598;53.802;-1.632;2023-03-12T06:01:15;99246.41;;;4.38;100.00
48888;BME280;42598;53.802;-1.632;2023-03-12T06:03:42;99254.04;;;6.04;100.00
48888;BME280;42598;53.802;-1.632;2023-03-12T06:06:10;99255.91;;;5.04;100.00
48888;BME280;42598;53.802;-1.632;2023-03-12T06:08:37;99247.33;;;5.29;100.00
48888;BME280;42598;53.802;-1.632;2023-03-12T06:11:05;99251.71;;;5.34;100.00
48888;BME280;42598;53.802;-1.632;2023-03-12T06:13:32;99250.10;;;4.85;100.00
48888;BME280;42598;53.802;-1.632;2023-03-12T06:16:02;99258.66;;;6.31;100.00
48888;BME280;42598;53.802;-1.632;2023-03-12T06:18:29;99262.03;;;5.53;100.00
48888;BME280;42598;53.802;-1.632;2023-03-12T06:21:07;99260.10;;;5.41;100.00
48888;BME280;42598;53.802;-1.632;2023-03-12T06:23:34;99258.76;;;4.84;100.00
48888;BME280;42598;53.802;-1.632;2023-03-12T06:26:01;99264.31;;;5.24;100.00
48888;BME280;42598;53.802;-1.632;2023-03-12T06:28:28;99260.81;;;5.35;100.00
48888;BME280;42598;53.802;-1.632;2023-03-12T06:30:56;99262.13;;;5.63;100.00
48888;BME280;42598;53.802;-1.632;2023-03-12T06:33:22;99268.19;;;4.90;100.00
48888;BME280;42598;53.802;-1.632;2023-03-12T06:35:52;99280.54;;;4.77;100.00
48888;BME280;42598;53.802;-1.632;2023-03-12T06:38:19;99272.37;;;4.58;100.00
48888;BME280;42598;53.802;-1.632;2023-03-12T06:40:53;99273.26;;;5.69;100.00
48888;BME280;42598;53.802;-1.632;2023-03-12T06:43:20;99274.44;;;4.98;100.00
48888;BME280;42598;53.802;-1.632;2023-03-12T06:45:48;99272.04;;;4.48;100.00
48888;BME280;42598;53.802;-1.632;2023-03-12T06:48:15;99272.61;;;5.11;100.00
48888;BME280;42598;53.802;-1.632;2023-03-12T06:50:43;99271.50;;;4.77;100.00
48888;BME280;42598;53.802;-1.632;2023-03-12T06:53:09;99271.14;;;5.03;100.00
48888;BME280;42598;53.802;-1.632;2023-03-12T06:55:36;99275.11;;;4.64;100.00
48888;BME280;42598;53.802;-1.632;2023-03-12T06:58:04;99275.22;;;4.36;100.00
48888;BME280;42598;53.802;-1.632;2023-03-12T07:00:31;99277.19;;;4.75;100.00
48888;BME280;42598;53.802;-1.632;2023-03-12T07:02:59;99275.85;;;5.33;100.00
48888;BME280;42598;53.802;-1.632;2023-03-12T07:05:26;99279.26;;;5.39;100.00
48888;BME280;42598;53.802;-1.632;2023-03-12T07:07:53;99283.86;;;5.48;100.00
48888;BME280;42598;53.802;-1.632;2023-03-12T07:10:21;99291.12;;;5.03;100.00
48888;BME280;42598;53.802;-1.632;2023-03-12T07:12:49;99286.78;;;5.61;100.00
48888;BME280;42598;53.802;-1.632;2023-03-12T07:15:16;99299.01;;;6.01;100.00
48888;BME280;42598;53.802;-1.632;2023-03-12T07:17:43;99308.98;;;5.59;100.00
48888;BME280;42598;53.802;-1.632;2023-03-12T07:20:11;99296.15;;;6.18;100.00
48888;BME280;42598;53.802;-1.632;2023-03-12T07:22:39;99289.47;;;5.57;100.00
48888;BME280;42598;53.802;-1.632;2023-03-12T07:25:08;99283.07;;;5.74;100.00
48888;BME280;42598;53.802;-1.632;2023-03-12T07:27:36;99287.84;;;5.61;100.00
48888;BME280;42598;53.802;-1.632;2023-03-12T07:30:06;99289.50;;;5.88;100.00
48888;BME280;42598;53.802;-1.632;2023-03-12T07:32:34;99288.11;;;6.97;100.00
48888;BME280;42598;53.802;-1.632;2023-03-12T07:35:01;99303.11;;;7.54;100.00
48888;BME280;42598;53.802;-1.632;2023-03-12T07:37:29;99320.84;;;6.07;100.00
48888;BME280;42598;53.802;-1.632;2023-03-12T07:39:56;99325.83;;;6.16;100.00
48888;BME280;42598;53.802;-1.632;2023-03-12T07:42:24;99330.12;;;5.95;100.00
48888;BME280;42598;53.802;-1.632;2023-03-12T07:44:51;99319.64;;;6.45;100.00
48888;BME280;42598;53.802;-1.632;2023-03-12T07:47:18;99323.16;;;5.02;100.00
48888;BME280;42598;53.802;-1.632;2023-03-12T07:49:45;99337.23;;;4.87;100.00
48888;BME280;42598;53.802;-1.632;2023-03-12T07:52:12;99343.77;;;5.37;100.00
48888;BME280;42598;53.802;-1.632;2023-03-12T07:54:39;99354.32;;;6.26;100.00
48888;BME280;42598;53.802;-1.632;2023-03-12T07:57:07;99360.01;;;5.18;100.00
48888;BME280;42598;53.802;-1.632;2023-03-12T07:59:34;99362.08;;;4.55;100.00
48888;BME280;42598;53.802;-1.632;2023-03-12T08:02:01;99358.61;;;5.49;100.00
48888;BME280;42598;53.802;-1.632;2023-03-12T08:04:28;99354.63;;;5.01;100.00
48888;BME280;42598;53.802;-1.632;2023-03-12T08:06:55;99345.56;;;5.68;100.00
48888;BME280;42598;53.802;-1.632;2023-03-12T08:09:23;99340.99;;;5.31;100.00
48888;BME280;42598;53.802;-1.632;2023-03-12T08:11:50;99349.50;;;5.85;100.00
48888;BME280;42598;53.802;-1.632;2023-03-12T08:14:17;99334.26;;;6.11;100.00
48888;BME280;42598;53.802;-1.632;2023-03-12T08:16:44;99337.38;;;5.62;100.00
48888;BME280;42598;53.802;-1.632;2023-03-12T08:19:11;99338.44;;;6.97;100.00
48888;BME280;42598;53.802;-1.632;2023-03-12T08:21:38;99330.95;;;7.99;100.00
48888;BME280;42598;53.802;-1.632;2023-03-12T08:24:06;99322.64;;;7.53;100.00
48888;BME280;42598;53.802;-1.632;2023-03-12T08:26:33;99319.63;;;7.14;100.00
48888;BME280;42598;53.802;-1.632;2023-03-12T08:29:00;99304.13;;;7.29;100.00
48888;BME280;42598;53.802;-1.632;2023-03-12T08:31:28;99301.55;;;6.73;100.00
48888;BME280;42598;53.802;-1.632;2023-03-12T08:33:55;99301.70;;;6.30;100.00
48888;BME280;42598;53.802;-1.632;2023-03-12T08:36:35;99295.22;;;7.17;100.00
48888;BME280;42598;53.802;-1.632;2023-03-12T08:39:04;99295.95;;;7.65;100.00
48888;BME280;42598;53.802;-1.632;2023-03-12T08:41:31;99305.11;;;7.76;100.00
48888;BME280;42598;53.802;-1.632;2023-03-12T08:43:59;99313.31;;;8.08;100.00
48888;BME280;42598;53.802;-1.632;2023-03-12T08:46:25;99322.72;;;6.83;100.00
48888;BME280;42598;53.802;-1.632;2023-03-12T08:48:53;99320.16;;;6.70;100.00
48888;BME280;42598;53.802;-1.632;2023-03-12T08:51:19;99318.92;;;7.22;100.00
48888;BME280;42598;53.802;-1.632;2023-03-12T08:53:46;99307.17;;;7.15;100.00
48888;BME280;42598;53.802;-1.632;2023-03-12T08:56:13;99322.57;;;6.79;100.00
48888;BME280;42598;53.802;-1.632;2023-03-12T08:58:41;99325.10;;;6.64;100.00
48888;BME280;42598;53.802;-1.632;2023-03-12T09:01:09;99327.68;;;6.55;100.00
48888;BME280;42598;53.802;-1.632;2023-03-12T09:03:37;99315.92;;;7.04;100.00
48888;BME280;42598;53.802;-1.632;2023-03-12T09:06:07;99314.12;;;6.63;100.00
48888;BME280;42598;53.802;-1.632;2023-03-12T09:08:34;99310.96;;;6.92;100.00
48888;BME280;42598;53.802;-1.632;2023-03-12T09:11:02;99316.32;;;7.85;100.00
48888;BME280;42598;53.802;-1.632;2023-03-12T09:13:29;99320.82;;;8.75;100.00
48888;BME280;42598;53.802;-1.632;2023-03-12T09:15:58;99328.67;;;9.22;100.00
48888;BME280;42598;53.802;-1.632;2023-03-12T09:18:26;99335.65;;;8.11;100.00
48888;BME280;42598;53.802;-1.632;2023-03-12T09:20:54;99339.64;;;8.05;100.00
48888;BME280;42598;53.802;-1.632;2023-03-12T09:23:21;99334.96;;;7.12;100.00
48888;BME280;42598;53.802;-1.632;2023-03-12T09:25:49;99336.07;;;7.64;100.00
48888;BME280;42598;53.802;-1.632;2023-03-12T09:28:17;99331.44;;;7.64;100.00
48888;BME280;42598;53.802;-1.632;2023-03-12T09:30:44;99338.02;;;7.86;100.00
48888;BME280;42598;53.802;-1.632;2023-03-12T09:33:12;99341.20;;;7.71;100.00
48888;BME280;42598;53.802;-1.632;2023-03-12T09:35:40;99349.42;;;7.35;100.00
48888;BME280;42598;53.802;-1.632;2023-03-12T09:38:09;99339.69;;;7.99;100.00
48888;BME280;42598;53.802;-1.632;2023-03-12T09:40:38;99335.09;;;8.86;100.00
48888;BME280;42598;53.802;-1.632;2023-03-12T09:43:10;99335.89;;;7.67;100.00
48888;BME280;42598;53.802;-1.632;2023-03-12T09:45:43;99332.52;;;9.16;100.00
48888;BME280;42598;53.802;-1.632;2023-03-12T09:48:13;99328.79;;;8.34;100.00
48888;BME280;42598;53.802;-1.632;2023-03-12T09:50:44;99329.09;;;8.30;100.00
48888;BME280;42598;53.802;-1.632;2023-03-12T09:53:18;99313.33;;;7.94;100.00
48888;BME280;42598;53.802;-1.632;2023-03-12T09:55:51;99307.25;;;8.77;100.00
48888;BME280;42598;53.802;-1.632;2023-03-12T09:58:24;99294.82;;;9.51;99.31
48888;BME280;42598;53.802;-1.632;2023-03-12T10:00:57;99293.84;;;8.40;100.00
48888;BME280;42598;53.802;-1.632;2023-03-12T10:03:55;99303.62;;;8.47;100.00
48888;BME280;42598;53.802;-1.632;2023-03-12T10:06:29;99305.56;;;8.15;100.00
48888;BME280;42598;53.802;-1.632;2023-03-12T10:09:09;99320.05;;;8.87;100.00
48888;BME280;42598;53.802;-1.632;2023-03-12T10:11:49;99309.77;;;8.78;100.00
48888;BME280;42598;53.802;-1.632;2023-03-12T10:14:29;99304.71;;;8.53;100.00
48888;BME280;42598;53.802;-1.632;2023-03-12T10:17:05;99298.77;;;9.49;100.00
48888;BME280;42598;53.802;-1.632;2023-03-12T10:19:53;99297.66;;;9.38;99.59
48888;BME280;42598;53.802;-1.632;2023-03-12T10:22:32;99297.11;;;9.94;98.19
48888;BME280;42598;53.802;-1.632;2023-03-12T10:25:15;99283.70;;;8.91;100.00
48888;BME280;42598;53.802;-1.632;2023-03-12T10:27:47;99270.55;;;9.05;100.00
48888;BME280;42598;53.802;-1.632;2023-03-12T10:30:19;99276.31;;;9.66;96.56
48888;BME280;42598;53.802;-1.632;2023-03-12T10:32:48;99276.02;;;9.20;100.00
48888;BME280;42598;53.802;-1.632;2023-03-12T10:35:19;99286.49;;;8.56;100.00
48888;BME280;42598;53.802;-1.632;2023-03-12T10:37:49;99286.18;;;9.06;100.00
48888;BME280;42598;53.802;-1.632;2023-03-12T10:40:18;99300.24;;;9.69;98.47
48888;BME280;42598;53.802;-1.632;2023-03-12T10:42:46;99298.98;;;9.53;97.96
48888;BME280;42598;53.802;-1.632;2023-03-12T10:45:21;99293.66;;;10.01;95.76
48888;BME280;42598;53.802;-1.632;2023-03-12T10:47:51;99293.13;;;9.76;97.36
48888;BME280;42598;53.802;-1.632;2023-03-12T10:50:21;99292.90;;;9.79;95.46
48888;BME280;42598;53.802;-1.632;2023-03-12T10:52:51;99293.06;;;8.64;99.78
48888;BME280;42598;53.802;-1.632;2023-03-12T10:55:22;99295.52;;;8.96;98.15
48888;BME280;42598;53.802;-1.632;2023-03-12T10:57:49;99303.97;;;8.65;100.00
48888;BME280;42598;53.802;-1.632;2023-03-12T11:00:19;99299.12;;;9.66;99.49
48888;BME280;42598;53.802;-1.632;2023-03-12T11:02:55;99305.73;;;10.17;95.98
48888;BME280;42598;53.802;-1.632;2023-03-12T11:05:24;99294.16;;;9.26;97.62
48888;BME280;42598;53.802;-1.632;2023-03-12T11:07:52;99298.67;;;9.67;96.50
48888;BME280;42598;53.802;-1.632;2023-03-12T11:10:22;99298.01;;;10.78;94.92
48888;BME280;42598;53.802;-1.632;2023-03-12T11:12:58;99304.30;;;10.03;94.55
48888;BME280;42598;53.802;-1.632;2023-03-12T11:15:27;99311.42;;;9.38;96.06
48888;BME280;42598;53.802;-1.632;2023-03-12T11:18:19;99313.35;;;10.32;92.29
48888;BME280;42598;53.802;-1.632;2023-03-12T11:20:47;99303.12;;;10.37;94.20
48888;BME280;42598;53.802;-1.632;2023-03-12T11:23:16;99305.72;;;9.90;93.31
48888;BME280;42598;53.802;-1.632;2023-03-12T11:25:51;99314.71;;;11.26;90.42
48888;BME280;42598;53.802;-1.632;2023-03-12T11:28:23;99307.12;;;10.46;88.84
48888;BME280;42598;53.802;-1.632;2023-03-12T11:30:52;99312.09;;;11.34;86.20
48888;BME280;42598;53.802;-1.632;2023-03-12T11:33:19;99307.01;;;11.94;83.58
48888;BME280;42598;53.802;-1.632;2023-03-12T11:35:57;99303.32;;;11.78;76.86
48888;BME280;42598;53.802;-1.632;2023-03-12T11:38:34;99300.60;;;11.70;76.02
48888;BME280;42598;53.802;-1.632;2023-03-12T11:41:16;99292.62;;;9.72;77.06
48888;BME280;42598;53.802;-1.632;2023-03-12T11:43:56;99299.59;;;10.04;75.77
48888;BME280;42598;53.802;-1.632;2023-03-12T11:46:37;99302.26;;;10.56;76.00
48888;BME280;42598;53.802;-1.632;2023-03-12T11:49:18;99298.81;;;10.85;72.29
48888;BME280;42598;53.802;-1.632;2023-03-12T11:51:54;99297.75;;;10.43;70.22
48888;BME280;42598;53.802;-1.632;2023-03-12T11:54:40;99304.66;;;9.41;72.95
48888;BME280;42598;53.802;-1.632;2023-03-12T11:57:17;99278.62;;;10.26;71.59
48888;BME280;42598;53.802;-1.632;2023-03-12T11:59:58;99265.65;;;11.69;67.60
48888;BME280;42598;53.802;-1.632;2023-03-12T12:02:39;99250.75;;;11.44;64.19
48888;BME280;42598;53.802;-1.632;2023-03-12T12:05:21;99230.46;;;12.13;61.69
48888;BME280;42598;53.802;-1.632;2023-03-12T12:08:03;99239.15;;;12.08;64.44
48888;BME280;42598;53.802;-1.632;2023-03-12T12:10:38;99229.80;;;12.91;59.32
48888;BME280;42598;53.802;-1.632;2023-03-12T12:13:16;99239.35;;;12.46;59.33
48888;BME280;42598;53.802;-1.632;2023-03-12T12:15:53;99243.13;;;12.41;62.07
48888;BME280;42598;53.802;-1.632;2023-03-12T12:18:37;99247.07;;;13.31;56.67
48888;BME280;42598;53.802;-1.632;2023-03-12T12:21:26;99241.39;;;13.40;56.04
48888;BME280;42598;53.802;-1.632;2023-03-12T12:24:08;99242.68;;;14.12;53.59
48888;BME280;42598;53.802;-1.632;2023-03-12T12:26:45;99224.03;;;13.80;53.87
48888;BME280;42598;53.802;-1.632;2023-03-12T12:29:21;99224.94;;;13.33;52.49
48888;BME280;42598;53.802;-1.632;2023-03-12T12:31:53;99223.15;;;14.51;51.88
48888;BME280;42598;53.802;-1.632;2023-03-12T12:34:35;99220.82;;;13.34;53.17
48888;BME280;42598;53.802;-1.632;2023-03-12T12:37:19;99214.12;;;14.00;52.50
48888;BME280;42598;53.802;-1.632;2023-03-12T12:39:53;99218.44;;;13.27;53.49
48888;BME280;42598;53.802;-1.632;2023-03-12T12:42:27;99207.13;;;13.21;51.50
48888;BME280;42598;53.802;-1.632;2023-03-12T12:44:57;99195.76;;;13.57;52.20
48888;BME280;42598;53.802;-1.632;2023-03-12T12:47:43;99202.75;;;14.06;51.93
48888;BME280;42598;53.802;-1.632;2023-03-12T12:50:15;99178.59;;;14.21;50.29
48888;BME280;42598;53.802;-1.632;2023-03-12T12:52:48;99170.48;;;13.61;50.91
48888;BME280;42598;53.802;-1.632;2023-03-12T12:55:21;99164.73;;;13.38;51.57
48888;BME280;42598;53.802;-1.632;2023-03-12T12:57:55;99167.19;;;14.76;51.98
48888;BME280;42598;53.802;-1.632;2023-03-12T13:00:36;99156.73;;;16.57;48.19
48888;BME280;42598;53.802;-1.632;2023-03-12T13:03:12;99156.81;;;15.96;46.10
48888;BME280;42598;53.802;-1.632;2023-03-12T13:05:53;99156.60;;;15.91;47.86